createdAt,value
2018-08-03T00:02:19.638Z,23.60
2018-08-03T00:04:47.286Z,23.50
2018-08-03T00:07:15.004Z,23.40
2018-08-03T00:09:42.697Z,23.50
2018-08-03T00:12:10.297Z,23.40
2018-08-03T00:14:37.905Z,23.30
2018-08-03T00:17:05.505Z,23.30
2018-08-03T00:22:03.501Z,23.20
2018-08-03T00:24:37.058Z,23.20
2018-08-03T00:27:05.288Z,23.10
2018-08-03T00:29:33.509Z,23.00
2018-08-03T00:32:01.781Z,23.00
2018-08-03T00:34:29.466Z,23.00
2018-08-03T00:36:57.369Z,23.00
2018-08-03T00:39:24.945Z,23.00
2018-08-03T00:41:52.631Z,22.90
2018-08-03T00:44:20.257Z,22.80
2018-08-03T00:46:47.877Z,22.80
2018-08-03T00:49:15.936Z,22.80
2018-08-03T00:51:43.528Z,22.80
2018-08-03T00:54:11.168Z,22.80
2018-08-03T00:56:38.765Z,22.80
2018-08-03T00:59:06.346Z,22.90
2018-08-03T01:01:34.040Z,22.80
2018-08-03T01:04:02.904Z,22.70
2018-08-03T01:06:31.151Z,22.70
2018-08-03T01:08:58.761Z,22.60
2018-08-03T01:11:26.294Z,22.50
2018-08-03T01:13:54.304Z,22.50
2018-08-03T01:16:21.961Z,22.50
2018-08-03T01:18:49.933Z,22.50
2018-08-03T01:21:17.484Z,22.50
2018-08-03T01:23:45.009Z,22.40
2018-08-03T01:26:13.330Z,22.40
2018-08-03T01:28:40.873Z,22.40
2018-08-03T01:31:08.426Z,22.30
2018-08-03T01:33:35.977Z,22.30
2018-08-03T01:36:03.549Z,22.30
2018-08-03T01:38:31.084Z,22.20
2018-08-03T01:40:58.656Z,22.10
2018-08-03T01:43:26.209Z,22.20
2018-08-03T01:45:53.770Z,22.10
2018-08-03T01:48:21.324Z,22.00
2018-08-03T01:50:48.912Z,22.00
2018-08-03T01:53:16.472Z,22.00
2018-08-03T01:55:44.086Z,21.90
2018-08-03T01:58:11.645Z,21.90
2018-08-03T02:00:39.261Z,21.80
2018-08-03T02:03:06.901Z,21.80
2018-08-03T02:05:36.089Z,21.70
2018-08-03T02:08:03.673Z,21.70
2018-08-03T02:10:31.235Z,21.70
2018-08-03T02:12:58.948Z,21.80
2018-08-03T02:15:26.482Z,21.80
2018-08-03T02:17:54.030Z,21.70
2018-08-03T02:20:21.661Z,21.70
2018-08-03T02:22:49.213Z,21.60
2018-08-03T02:25:16.753Z,21.60
2018-08-03T02:27:44.313Z,21.60
2018-08-03T02:30:11.888Z,21.60
2018-08-03T02:32:50.426Z,21.70
2018-08-03T02:35:18.264Z,21.50
2018-08-03T02:37:45.917Z,21.40
2018-08-03T02:40:13.532Z,21.50
2018-08-03T02:42:41.974Z,21.50
2018-08-03T02:45:09.653Z,21.50
2018-08-03T02:47:37.231Z,21.50
2018-08-03T02:50:04.873Z,21.40
2018-08-03T02:52:32.486Z,21.40
2018-08-03T02:55:00.173Z,21.40
2018-08-03T02:57:27.772Z,21.50
2018-08-03T02:59:55.368Z,21.40
2018-08-03T03:02:22.970Z,21.30
2018-08-03T03:04:50.569Z,21.30
2018-08-03T03:07:18.708Z,21.20
2018-08-03T03:09:46.328Z,21.20
2018-08-03T03:12:13.989Z,21.20
2018-08-03T03:14:44.516Z,21.20
2018-08-03T03:17:12.169Z,21.20
2018-08-03T03:19:39.806Z,21.20
2018-08-03T03:22:08.260Z,21.30
2018-08-03T03:24:35.920Z,21.10
2018-08-03T03:27:04.549Z,21.10
2018-08-03T03:29:32.140Z,21.10
2018-08-03T03:31:59.729Z,21.10
2018-08-03T03:34:27.425Z,21.10
2018-08-03T03:36:54.997Z,21.10
2018-08-03T03:39:22.741Z,21.00
2018-08-03T03:41:50.809Z,21.00
2018-08-03T03:44:18.829Z,21.00
2018-08-03T03:46:46.561Z,21.00
2018-08-03T03:49:14.229Z,21.00
2018-08-03T03:51:41.866Z,20.90
2018-08-03T03:54:09.477Z,20.90
2018-08-03T03:56:37.149Z,20.90
2018-08-03T03:59:04.828Z,21.00
2018-08-03T04:01:32.412Z,21.00
2018-08-03T04:04:00.014Z,20.90
2018-08-03T04:06:27.911Z,20.90
2018-08-03T04:08:56.013Z,20.90
2018-08-03T04:11:23.609Z,20.90
2018-08-03T04:13:51.212Z,20.90
2018-08-03T04:16:18.886Z,20.80
2018-08-03T04:18:46.469Z,20.70
2018-08-03T04:21:14.353Z,20.70
2018-08-03T04:23:41.969Z,20.70
2018-08-03T04:26:09.543Z,20.80
2018-08-03T04:28:37.157Z,20.80
2018-08-03T04:31:04.751Z,20.70
2018-08-03T04:33:32.340Z,20.70
2018-08-03T04:35:59.929Z,20.60
2018-08-03T04:38:28.129Z,20.70
2018-08-03T04:40:55.717Z,20.70
2018-08-03T04:43:23.296Z,20.70
2018-08-03T04:45:51.517Z,20.80
2018-08-03T04:48:19.142Z,20.90
2018-08-03T04:50:47.416Z,20.90
2018-08-03T04:53:15.074Z,20.90
2018-08-03T04:55:43.221Z,21.00
2018-08-03T05:00:38.367Z,21.00
2018-08-03T05:03:06.037Z,21.10
2018-08-03T05:05:33.721Z,21.10
2018-08-03T05:08:01.519Z,21.20
2018-08-03T05:10:29.153Z,21.20
2018-08-03T05:12:56.737Z,21.30
2018-08-03T05:15:25.139Z,21.30
2018-08-03T05:17:53.346Z,21.30
2018-08-03T05:20:21.005Z,21.40
2018-08-03T05:22:48.660Z,21.40
2018-08-03T05:25:17.261Z,21.50
2018-08-03T05:27:45.039Z,21.60
2018-08-03T05:30:13.651Z,21.50
2018-08-03T05:32:41.261Z,21.70
2018-08-03T05:35:09.283Z,21.70
2018-08-03T05:37:37.542Z,21.80
2018-08-03T05:40:05.453Z,21.80
2018-08-03T05:42:33.149Z,21.90
2018-08-03T05:45:02.849Z,21.90
2018-08-03T05:47:30.456Z,22.00
2018-08-03T05:49:58.063Z,22.10
2018-08-03T05:52:25.803Z,22.20
2018-08-03T05:54:53.363Z,22.20
2018-08-03T05:57:21.028Z,22.20
2018-08-03T05:59:48.592Z,22.20
2018-08-03T06:02:16.185Z,22.30
2018-08-03T06:04:43.884Z,22.40
2018-08-03T06:07:11.497Z,22.50
2018-08-03T06:09:39.245Z,22.50
2018-08-03T06:12:06.935Z,22.60
2018-08-03T06:14:34.545Z,22.60
2018-08-03T06:17:02.140Z,22.80
2018-08-03T06:19:30.237Z,22.90
2018-08-03T06:21:57.833Z,23.10
2018-08-03T06:24:25.494Z,23.00
2018-08-03T06:26:53.180Z,23.00
2018-08-03T06:29:20.786Z,23.00
2018-08-03T06:31:48.425Z,23.20
2018-08-03T06:34:16.013Z,23.30
2018-08-03T06:36:43.733Z,23.30
2018-08-03T06:39:11.825Z,23.40
2018-08-03T06:41:39.424Z,23.50
2018-08-03T06:44:07.265Z,23.60
2018-08-03T06:46:37.790Z,23.80
2018-08-03T06:49:05.381Z,23.80
2018-08-03T06:51:33.048Z,23.80
2018-08-03T06:54:00.869Z,24.00
2018-08-03T06:56:28.861Z,23.90
2018-08-03T06:58:56.493Z,24.00
2018-08-03T07:01:24.181Z,24.00
2018-08-03T07:03:51.785Z,24.20
2018-08-03T07:06:19.409Z,24.30
2018-08-03T07:08:47.560Z,24.30
2018-08-03T07:13:44.506Z,24.40
2018-08-03T07:16:12.121Z,24.50
2018-08-03T07:18:39.696Z,24.50
2018-08-03T07:21:07.929Z,24.50
2018-08-03T07:23:35.592Z,24.70
2018-08-03T07:26:04.337Z,24.80
2018-08-03T07:28:31.916Z,24.80
2018-08-03T07:30:59.565Z,24.90
2018-08-03T07:33:27.172Z,24.90
2018-08-03T07:35:54.905Z,25.20
2018-08-03T07:38:24.385Z,25.10
2018-08-03T07:40:54.932Z,25.20
2018-08-03T07:43:26.357Z,25.30
2018-08-03T07:45:54.012Z,25.50
2018-08-03T07:48:21.652Z,25.50
2018-08-03T07:50:49.233Z,25.60
2018-08-03T07:53:16.861Z,25.70
2018-08-03T07:55:44.445Z,25.70
2018-08-03T07:58:12.033Z,25.80
2018-08-03T08:00:40.150Z,26.00
2018-08-03T08:03:07.711Z,26.10
2018-08-03T08:05:35.308Z,26.30
2018-08-03T08:08:03.224Z,26.40
2018-08-03T08:10:31.370Z,26.50
2018-08-03T08:12:59.049Z,26.50
2018-08-03T08:15:26.682Z,26.50
2018-08-03T08:17:54.346Z,26.70
2018-08-03T08:20:22.000Z,26.90
2018-08-03T08:22:49.612Z,26.90
2018-08-03T08:25:17.220Z,27.00
2018-08-03T08:30:12.413Z,27.20
2018-08-03T08:32:40.025Z,27.30
2018-08-03T08:35:11.513Z,27.20
2018-08-03T08:37:39.125Z,27.20
2018-08-03T08:40:06.808Z,27.30
2018-08-03T08:42:34.463Z,27.40
2018-08-03T08:45:02.121Z,27.50
2018-08-03T08:47:30.773Z,27.70
2018-08-03T08:49:59.133Z,27.80
2018-08-03T08:52:27.086Z,28.00
2018-08-03T08:54:55.224Z,28.20
2018-08-03T08:57:22.773Z,28.20
2018-08-03T08:59:50.328Z,28.40
2018-08-03T09:02:18.462Z,28.60
2018-08-03T09:04:46.167Z,28.60
2018-08-03T09:07:13.892Z,28.50
2018-08-03T09:09:41.513Z,28.40
2018-08-03T09:12:09.126Z,28.50
2018-08-03T09:14:37.689Z,28.50
2018-08-03T09:17:06.271Z,28.40
2018-08-03T09:19:33.957Z,28.60
2018-08-03T09:22:01.834Z,28.80
2018-08-03T09:24:29.439Z,28.80
2018-08-03T09:26:57.049Z,28.70
2018-08-03T09:29:24.702Z,28.90
2018-08-03T09:31:52.425Z,29.20
2018-08-03T09:34:20.351Z,29.30
2018-08-03T09:36:54.012Z,29.50
2018-08-03T09:39:28.727Z,29.70
2018-08-03T09:41:56.389Z,29.80
2018-08-03T09:44:23.994Z,30.00
2018-08-03T09:46:51.709Z,29.90
2018-08-03T09:49:19.378Z,29.90
2018-08-03T09:51:47.893Z,30.10
2018-08-03T09:54:15.511Z,30.30
2018-08-03T09:56:43.100Z,30.20
2018-08-03T09:59:10.697Z,30.00
2018-08-03T10:01:38.960Z,30.00
2018-08-03T10:04:06.650Z,30.20
2018-08-03T10:06:34.236Z,30.60
2018-08-03T10:09:02.482Z,30.90
2018-08-03T10:11:30.130Z,31.10
2018-08-03T10:13:57.722Z,31.10
2018-08-03T10:16:25.488Z,30.90
2018-08-03T10:18:53.061Z,31.10
2018-08-03T10:21:21.233Z,31.00
2018-08-03T10:23:48.883Z,31.10
2018-08-03T10:26:16.474Z,31.30
2018-08-03T10:28:45.187Z,31.60
2018-08-03T10:31:13.149Z,31.80
2018-08-03T10:33:40.771Z,31.90
2018-08-03T10:36:08.354Z,32.10
2018-08-03T10:38:36.513Z,32.30
2018-08-03T10:41:04.165Z,32.30
2018-08-03T10:43:31.785Z,32.40
2018-08-03T10:45:59.810Z,32.50
2018-08-03T10:48:27.456Z,32.70
2018-08-03T10:50:55.029Z,32.70
2018-08-03T10:53:23.059Z,32.80
2018-08-03T10:55:50.702Z,32.90
2018-08-03T10:58:18.385Z,33.00
2018-08-03T11:00:46.340Z,32.90
2018-08-03T11:03:13.997Z,32.90
2018-08-03T11:05:41.945Z,33.00
2018-08-03T11:08:09.609Z,33.30
2018-08-03T11:10:37.236Z,33.60
2018-08-03T11:13:05.157Z,33.50
2018-08-03T11:15:32.741Z,33.60
2018-08-03T11:18:00.333Z,34.00
2018-08-03T11:20:29.352Z,34.10
2018-08-03T11:22:56.960Z,34.20
2018-08-03T11:25:25.261Z,34.40
2018-08-03T11:27:52.905Z,34.50
2018-08-03T11:30:20.548Z,34.50
2018-08-03T11:32:48.629Z,34.60
2018-08-03T11:35:16.383Z,34.70
2018-08-03T11:37:43.925Z,34.60
2018-08-03T11:40:11.547Z,34.80
2018-08-03T11:45:08.225Z,35.00
2018-08-03T11:47:35.904Z,35.00
2018-08-03T11:50:04.581Z,35.00
2018-08-03T11:52:32.185Z,35.00
2018-08-03T11:54:59.866Z,34.90
2018-08-03T11:57:27.474Z,34.70
2018-08-03T11:59:55.079Z,34.70
2018-08-03T12:02:22.674Z,35.10
2018-08-03T12:04:50.311Z,35.40
2018-08-03T12:07:17.933Z,35.70
2018-08-03T12:09:45.524Z,35.80
2018-08-03T12:12:13.126Z,35.30
2018-08-03T12:14:40.720Z,35.20
2018-08-03T12:19:35.854Z,35.60
2018-08-03T12:22:03.473Z,35.60
2018-08-03T12:24:31.129Z,35.80
2018-08-03T12:26:58.762Z,35.70
2018-08-03T12:29:26.383Z,35.90
2018-08-03T12:31:54.011Z,35.80
2018-08-03T12:34:21.621Z,35.60
2018-08-03T12:36:49.297Z,35.50
2018-08-03T12:39:16.893Z,35.50
2018-08-03T12:41:44.872Z,35.40
2018-08-03T12:44:12.792Z,35.40
2018-08-03T12:46:40.409Z,35.70
2018-08-03T12:49:08.024Z,35.90
2018-08-03T12:51:35.672Z,36.00
2018-08-03T12:54:03.262Z,36.30
2018-08-03T12:56:30.847Z,36.60
2018-08-03T12:58:58.457Z,36.70
2018-08-03T13:01:26.004Z,36.70
2018-08-03T13:03:54.053Z,36.80
2018-08-03T13:06:21.669Z,36.80
2018-08-03T13:08:49.311Z,37.00
2018-08-03T13:11:16.873Z,37.10
2018-08-03T13:13:44.508Z,37.10
2018-08-03T13:16:12.132Z,37.30
2018-08-03T13:18:39.700Z,37.30
2018-08-03T13:21:18.506Z,37.10
2018-08-03T13:23:53.672Z,36.70
2018-08-03T13:26:21.325Z,36.70
2018-08-03T13:28:49.959Z,37.00
2018-08-03T13:31:17.596Z,37.00
2018-08-03T13:33:45.185Z,37.40
2018-08-03T13:36:12.920Z,37.80
2018-08-03T13:38:40.493Z,37.50
2018-08-03T13:41:08.129Z,37.90
2018-08-03T13:43:35.701Z,38.50
2018-08-03T13:46:03.301Z,39.20
2018-08-03T13:48:30.905Z,39.60
2018-08-03T13:50:58.548Z,39.70
2018-08-03T13:53:26.192Z,40.30
2018-08-03T13:55:54.010Z,40.90
2018-08-03T13:58:21.685Z,41.70
2018-08-03T14:00:50.965Z,43.00
2018-08-03T14:03:18.857Z,44.10
2018-08-03T14:05:46.497Z,44.90
2018-08-03T14:08:14.149Z,45.50
2018-08-03T14:10:41.924Z,46.40
2018-08-03T14:13:09.544Z,46.60
2018-08-03T14:15:37.265Z,46.40
2018-08-03T14:18:05.351Z,46.80
2018-08-03T14:20:32.973Z,47.60
2018-08-03T14:23:00.620Z,47.60
2018-08-03T14:25:28.282Z,47.10
2018-08-03T14:27:55.885Z,47.00
2018-08-03T14:30:23.491Z,48.20
2018-08-03T14:32:51.142Z,48.10
2018-08-03T14:35:18.755Z,48.50
2018-08-03T14:37:46.674Z,48.10
2018-08-03T14:40:14.413Z,47.60
2018-08-03T14:42:41.996Z,47.50
2018-08-03T14:45:10.013Z,47.60
2018-08-03T14:47:39.126Z,48.40
2018-08-03T14:50:06.945Z,48.50
2018-08-03T14:52:35.056Z,48.70
2018-08-03T14:55:03.630Z,47.50
2018-08-03T14:57:31.397Z,47.30
2018-08-03T14:59:58.989Z,46.60
2018-08-03T15:02:26.645Z,46.60
2018-08-03T15:04:54.336Z,46.70
2018-08-03T15:07:22.002Z,48.20
2018-08-03T15:09:49.572Z,48.10
2018-08-03T15:12:17.184Z,47.70
2018-08-03T15:14:45.197Z,48.00
2018-08-03T15:17:12.819Z,47.50
2018-08-03T15:19:40.406Z,47.00
2018-08-03T15:22:08.123Z,47.20
2018-08-03T15:24:35.708Z,48.00
2018-08-03T15:27:04.223Z,48.00
2018-08-03T15:29:31.853Z,48.20
2018-08-03T15:31:59.464Z,49.00
2018-08-03T15:34:27.261Z,48.90
2018-08-03T15:36:54.843Z,48.40
2018-08-03T15:39:22.421Z,47.80
2018-08-03T15:41:50.034Z,49.10
2018-08-03T15:44:17.653Z,48.60
2018-08-03T15:46:45.236Z,49.10
2018-08-03T15:51:41.070Z,49.20
2018-08-03T15:54:09.169Z,48.10
2018-08-03T15:56:36.909Z,48.40
2018-08-03T15:59:05.383Z,49.00
2018-08-03T16:01:33.118Z,48.70
2018-08-03T16:04:01.073Z,48.90
2018-08-03T16:06:28.791Z,48.60
2018-08-03T16:08:56.586Z,48.00
2018-08-03T16:11:24.201Z,48.10
2018-08-03T16:13:51.797Z,47.90
2018-08-03T16:18:47.179Z,48.10
2018-08-03T16:21:15.201Z,48.20
2018-08-03T16:23:42.808Z,45.90
2018-08-03T16:26:10.385Z,45.30
2018-08-03T16:28:38.529Z,45.70
2018-08-03T16:31:06.181Z,45.70
2018-08-03T16:33:33.813Z,46.00
2018-08-03T16:36:01.400Z,46.30
2018-08-03T16:38:29.021Z,45.80
2018-08-03T16:40:56.605Z,46.20
2018-08-03T16:43:24.289Z,46.20
2018-08-03T16:45:52.520Z,45.70
2018-08-03T16:48:20.147Z,45.10
2018-08-03T16:50:48.894Z,45.10
2018-08-03T16:53:16.862Z,45.80
2018-08-03T16:55:44.497Z,46.40
2018-08-03T16:58:12.217Z,46.20
2018-08-03T17:03:08.453Z,44.80
2018-08-03T17:05:36.041Z,45.30
2018-08-03T17:08:03.666Z,45.00
2018-08-03T17:10:31.310Z,44.40
2018-08-03T17:12:58.901Z,44.90
2018-08-03T17:15:26.527Z,44.90
2018-08-03T17:17:54.505Z,44.20
2018-08-03T17:20:22.223Z,42.60
2018-08-03T17:22:49.901Z,41.70
2018-08-03T17:25:17.477Z,40.50
2018-08-03T17:27:45.417Z,39.40
2018-08-03T17:30:12.993Z,38.80
2018-08-03T17:32:40.704Z,38.50
2018-08-03T17:35:08.295Z,38.10
2018-08-03T17:37:36.918Z,37.70
2018-08-03T17:40:05.198Z,37.20
2018-08-03T17:42:32.941Z,36.70
2018-08-03T17:45:01.377Z,36.40
2018-08-03T17:52:24.203Z,35.60
2018-08-03T17:54:52.251Z,35.40
2018-08-03T17:57:19.952Z,35.50
2018-08-03T17:59:47.529Z,35.50
2018-08-03T18:02:15.408Z,35.30
2018-08-03T18:04:43.015Z,35.10
2018-08-03T18:07:10.579Z,34.90
2018-08-03T18:09:38.143Z,34.70
2018-08-03T18:12:05.857Z,34.50
2018-08-03T18:14:33.589Z,34.40
2018-08-03T18:17:01.201Z,34.30
2018-08-03T18:19:28.976Z,34.10
2018-08-03T18:21:56.574Z,34.00
2018-08-03T18:24:24.382Z,34.00
2018-08-03T18:26:52.035Z,33.80
2018-08-03T18:29:19.706Z,33.60
2018-08-03T18:31:47.265Z,33.40
2018-08-03T18:34:14.853Z,33.40
2018-08-03T18:36:42.478Z,33.40
2018-08-03T18:39:11.161Z,33.20
2018-08-03T18:41:38.965Z,33.00
2018-08-03T18:44:06.682Z,32.90
2018-08-03T18:46:34.358Z,32.80
2018-08-03T18:49:01.981Z,32.70
2018-08-03T18:51:29.569Z,32.60
2018-08-03T18:53:57.705Z,32.50
2018-08-03T18:56:25.277Z,32.40
2018-08-03T18:58:52.881Z,32.30
2018-08-03T19:01:20.526Z,32.20
2018-08-03T19:03:48.650Z,32.10
2018-08-03T19:06:16.487Z,32.00
2018-08-03T19:08:44.269Z,31.90
2018-08-03T19:11:12.022Z,31.90
2018-08-03T19:13:40.153Z,31.80
2018-08-03T19:16:08.316Z,31.70
2018-08-03T19:18:37.376Z,31.60
2018-08-03T19:21:05.034Z,31.50
2018-08-03T19:23:33.608Z,31.40
2018-08-03T19:26:02.009Z,31.30
2018-08-03T19:28:30.049Z,31.20
2018-08-03T19:31:00.207Z,31.10
2018-08-03T19:33:27.963Z,30.90
2018-08-03T19:35:56.005Z,30.80
2018-08-03T19:38:23.639Z,30.70
2018-08-03T19:40:51.454Z,30.60
2018-08-03T19:43:19.128Z,30.60
2018-08-03T19:45:46.754Z,30.50
2018-08-03T19:48:14.373Z,30.40
2018-08-03T19:50:42.038Z,30.40
2018-08-03T19:53:11.022Z,30.30
2018-08-03T19:58:06.184Z,30.20
2018-08-03T20:00:34.051Z,30.10
2018-08-03T20:03:02.369Z,30.00
2018-08-03T20:05:30.071Z,29.90
2018-08-03T20:07:57.974Z,29.80
2018-08-03T20:10:25.669Z,29.80
2018-08-03T20:12:53.841Z,29.70
2018-08-03T20:15:21.521Z,29.70
2018-08-03T20:17:49.181Z,29.60
2018-08-03T20:20:16.889Z,29.60
2018-08-03T20:22:44.481Z,29.50
2018-08-03T20:25:12.577Z,29.40
2018-08-03T20:27:40.281Z,29.30
2018-08-03T20:30:08.853Z,29.10
2018-08-03T20:32:37.085Z,29.10
2018-08-03T20:35:05.350Z,29.20
2018-08-03T20:37:33.172Z,29.10
2018-08-03T20:40:02.753Z,29.00
2018-08-03T20:42:30.636Z,29.00
2018-08-03T20:44:58.286Z,29.00
2018-08-03T20:47:25.910Z,28.90
2018-08-03T20:49:53.621Z,28.90
2018-08-03T20:52:21.401Z,28.90
2018-08-03T20:54:49.153Z,28.90
2018-08-03T20:57:16.785Z,28.90
2018-08-03T20:59:44.425Z,28.90
2018-08-03T21:02:12.102Z,28.80
2018-08-03T21:04:39.807Z,28.70
2018-08-03T21:07:07.619Z,28.50
2018-08-03T21:09:36.515Z,28.40
2018-08-03T21:12:05.845Z,28.40
2018-08-03T21:14:34.592Z,28.30
2018-08-03T21:17:02.281Z,28.30
2018-08-03T21:19:31.628Z,28.20
2018-08-03T21:22:01.237Z,28.20
2018-08-03T21:24:28.844Z,28.20
2018-08-03T21:26:56.693Z,28.10
2018-08-03T21:29:25.490Z,28.00
2018-08-03T21:31:53.287Z,27.90
2018-08-03T21:34:21.070Z,27.90
2018-08-03T21:36:50.557Z,27.90
2018-08-03T21:39:18.194Z,27.90
2018-08-03T21:41:45.830Z,27.80
2018-08-03T21:44:13.440Z,27.80
2018-08-03T21:46:41.060Z,27.70
2018-08-03T21:49:08.844Z,27.70
2018-08-03T21:51:36.469Z,27.70
2018-08-03T21:54:05.672Z,27.70
2018-08-03T21:56:33.758Z,27.60
2018-08-03T21:59:01.566Z,27.60
2018-08-03T22:01:29.529Z,27.60
2018-08-03T22:03:57.117Z,27.50
2018-08-03T22:06:24.774Z,27.50
2018-08-03T22:08:52.777Z,27.40
2018-08-03T22:11:21.281Z,27.40
2018-08-03T22:13:48.893Z,27.40
2018-08-03T22:16:16.775Z,27.30
2018-08-03T22:18:44.477Z,27.30
2018-08-03T22:21:12.041Z,27.20
2018-08-03T22:23:39.640Z,27.20
2018-08-03T22:26:07.801Z,27.30
2018-08-03T22:28:35.445Z,27.30
2018-08-03T22:33:30.969Z,27.20
2018-08-03T22:35:58.556Z,27.20
2018-08-03T22:38:26.183Z,27.20
2018-08-03T22:40:53.833Z,27.00
2018-08-03T22:43:23.156Z,27.00
2018-08-03T22:45:53.184Z,27.00
2018-08-03T22:48:21.935Z,26.90
2018-08-03T22:50:49.636Z,26.90
2018-08-03T22:53:17.371Z,27.00
2018-08-03T22:55:48.087Z,26.90
2018-08-03T22:58:15.761Z,26.90
2018-08-03T23:00:43.357Z,26.80
2018-08-03T23:03:11.603Z,26.80
2018-08-03T23:05:39.777Z,26.70
2018-08-03T23:08:07.566Z,26.60
2018-08-03T23:10:35.221Z,26.60
2018-08-03T23:13:03.029Z,26.60
2018-08-03T23:15:30.622Z,26.60
2018-08-03T23:17:58.634Z,26.50
2018-08-03T23:20:26.288Z,26.50
2018-08-03T23:22:53.952Z,26.40
2018-08-03T23:25:22.881Z,26.40
2018-08-03T23:27:50.917Z,26.40
2018-08-03T23:30:18.647Z,26.30
2018-08-03T23:32:46.314Z,26.30
2018-08-03T23:35:13.881Z,26.20
2018-08-03T23:37:41.612Z,26.10
2018-08-03T23:40:09.225Z,26.10
2018-08-03T23:42:36.957Z,26.10
2018-08-03T23:45:05.215Z,26.10
2018-08-03T23:47:32.972Z,26.10
2018-08-03T23:50:01.248Z,26.10
2018-08-03T23:52:29.578Z,26.00
2018-08-03T23:54:57.177Z,26.00
2018-08-03T23:57:24.857Z,26.00
2018-08-03T23:59:52.454Z,25.90
